createdAt,value
2022-07-31T00:00:32.493Z,20.60
2022-07-31T00:03:18.905Z,20.50
2022-07-31T00:06:07.271Z,20.40
2022-07-31T00:08:55.077Z,20.40
2022-07-31T00:11:43.704Z,20.30
2022-07-31T00:14:30.522Z,20.20
2022-07-31T00:17:16.993Z,20.20
2022-07-31T00:20:03.402Z,20.20
2022-07-31T00:22:51.273Z,20.10
2022-07-31T00:25:38.124Z,20.10
2022-07-31T00:28:26.079Z,19.90
2022-07-31T00:31:12.532Z,20.00
2022-07-31T00:33:58.983Z,19.90
2022-07-31T00:36:45.317Z,19.90
2022-07-31T00:39:33.057Z,20.00
2022-07-31T00:42:20.378Z,19.90
2022-07-31T00:45:08.607Z,19.90
2022-07-31T00:47:55.991Z,19.90
2022-07-31T00:50:42.744Z,19.90
2022-07-31T00:53:29.144Z,19.80
2022-07-31T00:56:16.886Z,19.60
2022-07-31T00:59:04.690Z,19.70
2022-07-31T01:01:51.220Z,19.60
2022-07-31T01:04:37.783Z,19.70
2022-07-31T01:07:28.249Z,19.80
2022-07-31T01:10:18.715Z,19.80
2022-07-31T01:13:11.606Z,19.70
2022-07-31T01:15:59.487Z,19.50
2022-07-31T01:18:47.565Z,19.60
2022-07-31T01:21:36.792Z,19.60
2022-07-31T01:24:49.570Z,19.70
2022-07-31T01:27:53.267Z,19.60
2022-07-31T01:30:45.754Z,19.60
2022-07-31T01:33:37.993Z,19.40
2022-07-31T01:36:27.276Z,19.20
2022-07-31T01:39:14.101Z,19.30
2022-07-31T01:42:06.082Z,19.30
2022-07-31T01:44:57.511Z,19.30
2022-07-31T01:47:46.149Z,19.30
2022-07-31T01:50:43.969Z,19.30
2022-07-31T01:53:32.262Z,19.20
2022-07-31T01:56:19.804Z,19.20
2022-07-31T01:59:20.136Z,19.20
2022-07-31T02:02:09.934Z,19.20
2022-07-31T02:04:59.344Z,19.10
2022-07-31T02:07:47.149Z,19.00
2022-07-31T02:10:35.173Z,18.90
2022-07-31T02:13:23.485Z,19.00
2022-07-31T02:16:10.332Z,19.10
2022-07-31T02:18:58.142Z,19.10
2022-07-31T02:21:46.291Z,19.10
2022-07-31T02:24:33.254Z,19.00
2022-07-31T02:27:57.784Z,19.00
2022-07-31T02:30:39.261Z,18.90
2022-07-31T02:33:27.729Z,18.90
2022-07-31T02:36:15.468Z,18.90
2022-07-31T02:39:04.685Z,18.90
2022-07-31T02:41:51.231Z,18.90
2022-07-31T02:44:39.844Z,18.90
2022-07-31T02:47:26.494Z,18.90
2022-07-31T02:50:13.812Z,18.90
2022-07-31T02:53:04.953Z,18.80
2022-07-31T02:55:53.381Z,18.80
2022-07-31T02:58:41.941Z,18.80
2022-07-31T03:01:28.684Z,18.70
2022-07-31T03:04:15.641Z,18.70
2022-07-31T03:07:02.002Z,18.70
2022-07-31T03:09:49.626Z,18.70
2022-07-31T03:12:37.955Z,18.60
2022-07-31T03:15:27.715Z,18.60
2022-07-31T03:18:16.373Z,18.60
2022-07-31T03:21:03.031Z,18.50
2022-07-31T03:23:51.426Z,18.50
2022-07-31T03:26:37.918Z,18.50
2022-07-31T03:29:39.293Z,18.50
2022-07-31T03:32:30.601Z,18.50
2022-07-31T03:35:18.167Z,18.60
2022-07-31T03:38:39.091Z,18.60
2022-07-31T03:41:13.090Z,18.60
2022-07-31T03:44:00.045Z,18.60
2022-07-31T03:46:48.121Z,18.60
2022-07-31T03:49:35.681Z,18.60
2022-07-31T03:52:22.408Z,18.60
2022-07-31T03:55:09.913Z,18.70
2022-07-31T03:57:56.797Z,18.70
2022-07-31T04:00:45.237Z,18.70
2022-07-31T04:03:33.407Z,18.80
2022-07-31T04:06:19.816Z,18.80
2022-07-31T04:09:13.252Z,18.80
2022-07-31T04:12:06.260Z,18.80
2022-07-31T04:14:52.992Z,18.80
2022-07-31T04:17:39.239Z,18.80
2022-07-31T04:20:26.872Z,18.80
2022-07-31T04:23:13.325Z,18.80
2022-07-31T04:26:00.359Z,18.90
2022-07-31T04:28:46.743Z,18.90
2022-07-31T04:31:33.175Z,18.90
2022-07-31T04:34:19.535Z,18.90
2022-07-31T04:37:07.399Z,18.70
2022-07-31T04:39:54.151Z,18.90
2022-07-31T04:42:40.545Z,18.80
2022-07-31T04:45:26.875Z,18.90
2022-07-31T04:48:13.466Z,18.90
2022-07-31T04:50:59.867Z,18.90
2022-07-31T04:53:48.221Z,19.00
2022-07-31T04:56:36.060Z,19.00
2022-07-31T04:59:23.691Z,19.00
2022-07-31T05:02:30.429Z,19.10
2022-07-31T05:05:17.636Z,19.10
2022-07-31T05:08:04.064Z,19.20
2022-07-31T05:11:09.297Z,19.20
2022-07-31T05:13:57.213Z,19.30
2022-07-31T05:16:43.647Z,19.30
2022-07-31T05:19:30.768Z,19.40
2022-07-31T05:22:18.830Z,19.50
2022-07-31T05:25:06.323Z,19.50
2022-07-31T05:27:54.244Z,19.70
2022-07-31T05:30:41.535Z,19.70
2022-07-31T05:33:28.668Z,19.80
2022-07-31T05:36:15.953Z,19.90
2022-07-31T05:39:02.809Z,19.90
2022-07-31T05:41:51.366Z,20.00
2022-07-31T05:44:39.070Z,20.00
2022-07-31T05:47:25.389Z,20.10
2022-07-31T05:50:28.455Z,20.10
2022-07-31T05:53:16.004Z,20.20
2022-07-31T05:56:02.654Z,20.20
2022-07-31T05:58:49.121Z,20.20
2022-07-31T06:01:37.050Z,20.20
2022-07-31T06:04:24.375Z,20.30
2022-07-31T06:07:11.044Z,20.30
2022-07-31T06:09:58.409Z,20.40
2022-07-31T06:12:45.072Z,20.40
2022-07-31T06:15:36.051Z,20.40
2022-07-31T06:18:24.412Z,20.50
2022-07-31T06:23:57.679Z,20.50
2022-07-31T06:26:44.089Z,20.60
2022-07-31T06:29:41.688Z,20.70
2022-07-31T06:32:28.696Z,20.80
2022-07-31T06:35:16.456Z,20.80
2022-07-31T06:38:03.304Z,20.80
2022-07-31T06:40:49.643Z,20.90
2022-07-31T06:43:36.085Z,21.10
2022-07-31T06:46:22.692Z,21.10
2022-07-31T06:49:09.291Z,21.20
2022-07-31T06:51:57.219Z,21.30
2022-07-31T06:54:44.116Z,21.40
2022-07-31T06:57:30.483Z,21.50
2022-07-31T07:00:20.426Z,21.60
2022-07-31T07:03:07.776Z,21.60
2022-07-31T07:05:54.168Z,21.70
2022-07-31T07:08:41.929Z,21.80
2022-07-31T07:11:28.431Z,21.80
2022-07-31T07:14:14.893Z,21.90
2022-07-31T07:17:04.805Z,22.00
2022-07-31T07:19:54.687Z,21.90
2022-07-31T07:22:42.495Z,22.00
2022-07-31T07:25:30.182Z,22.00
2022-07-31T07:28:30.945Z,22.10
2022-07-31T07:31:17.875Z,22.00
2022-07-31T07:34:06.241Z,22.10
2022-07-31T07:36:52.941Z,22.20
2022-07-31T07:39:39.226Z,22.30
2022-07-31T07:42:27.053Z,22.50
2022-07-31T07:45:14.442Z,22.70
2022-07-31T07:48:06.603Z,22.80
2022-07-31T07:50:53.952Z,22.90
2022-07-31T07:53:40.468Z,22.90
2022-07-31T07:56:26.993Z,22.90
2022-07-31T07:59:15.111Z,22.90
2022-07-31T08:02:02.104Z,23.00
2022-07-31T08:04:49.633Z,23.00
2022-07-31T08:07:42.135Z,23.20
2022-07-31T08:10:29.488Z,23.30
2022-07-31T08:13:15.767Z,23.30
2022-07-31T08:16:03.642Z,23.30
2022-07-31T08:18:50.438Z,23.30
2022-07-31T08:21:37.467Z,23.40
2022-07-31T08:24:24.292Z,23.40
2022-07-31T08:27:39.938Z,23.40
2022-07-31T08:30:30.748Z,23.50
2022-07-31T08:33:19.111Z,23.60
2022-07-31T08:36:09.039Z,23.70
2022-07-31T08:38:55.759Z,23.80
2022-07-31T08:41:42.147Z,24.00
2022-07-31T08:44:31.180Z,24.00
2022-07-31T08:47:18.464Z,24.00
2022-07-31T08:50:07.454Z,24.00
2022-07-31T08:52:57.372Z,24.10
2022-07-31T08:55:56.654Z,24.00
2022-07-31T08:58:45.088Z,24.10
2022-07-31T09:01:33.944Z,24.20
2022-07-31T09:04:20.506Z,24.20
2022-07-31T09:07:11.976Z,24.20
2022-07-31T09:09:58.519Z,24.20
2022-07-31T09:12:45.000Z,24.30
2022-07-31T09:15:32.888Z,24.40
2022-07-31T09:18:20.035Z,24.40
2022-07-31T09:21:08.447Z,24.50
2022-07-31T09:23:56.468Z,24.50
2022-07-31T09:26:43.068Z,24.60
2022-07-31T09:29:38.207Z,24.60
2022-07-31T09:32:25.151Z,24.70
2022-07-31T09:35:14.365Z,24.90
2022-07-31T09:38:01.087Z,25.00
2022-07-31T09:40:56.954Z,25.00
2022-07-31T09:43:51.635Z,25.30
2022-07-31T09:46:42.769Z,25.20
2022-07-31T09:49:33.426Z,25.40
2022-07-31T09:52:20.707Z,25.70
2022-07-31T09:55:16.294Z,25.70
2022-07-31T09:58:04.816Z,25.80
2022-07-31T10:00:53.629Z,25.80
2022-07-31T10:03:41.593Z,25.80
2022-07-31T10:06:29.226Z,25.80
2022-07-31T10:09:18.316Z,25.90
2022-07-31T10:12:06.018Z,26.00
2022-07-31T10:14:56.939Z,26.00
2022-07-31T10:17:46.596Z,26.00
2022-07-31T10:20:35.447Z,25.90
2022-07-31T10:23:25.349Z,25.90
2022-07-31T10:26:11.968Z,25.90
2022-07-31T10:28:59.416Z,26.00
2022-07-31T10:31:47.999Z,26.00
2022-07-31T10:34:35.596Z,26.00
2022-07-31T10:37:26.848Z,25.90
2022-07-31T10:40:25.093Z,25.90
2022-07-31T10:43:20.288Z,26.00
2022-07-31T10:46:07.275Z,26.20
2022-07-31T10:48:55.295Z,26.10
2022-07-31T10:51:48.233Z,26.00
2022-07-31T10:54:43.470Z,25.80
2022-07-31T10:57:33.279Z,25.80
2022-07-31T11:00:22.792Z,25.70
2022-07-31T11:03:16.707Z,25.70
2022-07-31T11:06:04.750Z,25.80
2022-07-31T11:08:53.715Z,25.80
2022-07-31T11:11:40.024Z,25.90
2022-07-31T11:14:38.841Z,25.90
2022-07-31T11:18:21.193Z,25.80
2022-07-31T11:20:40.109Z,25.80
2022-07-31T11:23:32.146Z,25.90
2022-07-31T11:26:18.879Z,25.90
2022-07-31T11:29:59.965Z,25.80
2022-07-31T11:32:39.082Z,26.00
2022-07-31T11:35:27.764Z,26.00
2022-07-31T11:38:14.228Z,25.90
2022-07-31T11:41:04.809Z,26.10
2022-07-31T11:43:54.425Z,26.20
2022-07-31T11:46:41.119Z,26.20
2022-07-31T11:49:47.819Z,26.10
2022-07-31T11:52:36.977Z,26.10
2022-07-31T11:55:24.159Z,26.20
2022-07-31T11:58:12.685Z,26.20
2022-07-31T12:01:00.548Z,26.30
2022-07-31T12:03:51.288Z,26.20
2022-07-31T12:06:38.306Z,26.30
2022-07-31T12:10:01.423Z,26.40
2022-07-31T12:12:32.414Z,26.10
2022-07-31T12:15:22.636Z,25.90
2022-07-31T12:18:09.405Z,25.80
2022-07-31T12:20:57.660Z,25.80
2022-07-31T12:23:46.386Z,25.80
2022-07-31T12:26:34.577Z,25.70
2022-07-31T12:29:30.480Z,25.80
2022-07-31T12:32:27.158Z,25.90
2022-07-31T12:35:13.891Z,26.00
2022-07-31T12:38:00.483Z,26.00
2022-07-31T12:40:48.378Z,25.70
2022-07-31T12:43:34.945Z,25.70
2022-07-31T12:46:22.923Z,25.80
2022-07-31T12:49:11.246Z,25.40
2022-07-31T12:51:58.233Z,25.30
2022-07-31T12:54:45.401Z,25.20
2022-07-31T12:57:32.016Z,25.50
2022-07-31T13:00:19.225Z,25.40
2022-07-31T13:03:05.780Z,25.70
2022-07-31T13:05:53.706Z,25.90
2022-07-31T13:08:40.414Z,25.90
2022-07-31T13:11:28.955Z,25.90
2022-07-31T13:14:15.933Z,25.90
2022-07-31T13:17:02.687Z,25.70
2022-07-31T13:19:50.300Z,25.90
2022-07-31T13:22:38.240Z,25.60
2022-07-31T13:25:24.939Z,25.70
2022-07-31T13:28:11.484Z,25.70
2022-07-31T13:30:57.797Z,26.00
2022-07-31T13:33:44.175Z,26.10
2022-07-31T13:36:35.636Z,26.20
2022-07-31T13:39:26.432Z,26.20
2022-07-31T13:42:12.855Z,26.30
2022-07-31T13:45:08.012Z,26.40
2022-07-31T13:47:59.657Z,26.10
2022-07-31T13:50:46.785Z,26.00
2022-07-31T13:53:33.833Z,26.40
2022-07-31T13:56:39.222Z,26.40
2022-07-31T13:59:29.304Z,26.40
2022-07-31T14:02:16.107Z,26.60
2022-07-31T14:05:02.697Z,26.60
2022-07-31T14:07:51.972Z,26.30
2022-07-31T14:10:39.678Z,26.10
2022-07-31T14:13:30.017Z,26.20
2022-07-31T14:16:16.574Z,26.00
2022-07-31T14:19:03.025Z,26.00
2022-07-31T14:21:50.136Z,25.90
2022-07-31T14:24:51.068Z,26.00
2022-07-31T14:27:38.701Z,25.70
2022-07-31T14:30:27.924Z,25.30
2022-07-31T14:33:17.033Z,25.30
2022-07-31T14:36:03.848Z,25.40
2022-07-31T14:38:50.578Z,25.20
2022-07-31T14:41:37.134Z,25.20
2022-07-31T14:44:28.468Z,25.40
2022-07-31T14:47:17.810Z,25.50
2022-07-31T14:50:07.952Z,25.40
2022-07-31T14:52:57.052Z,25.40
2022-07-31T14:55:43.513Z,25.20
2022-07-31T14:58:29.924Z,24.90
2022-07-31T15:01:16.450Z,24.70
2022-07-31T15:04:04.488Z,24.80
2022-07-31T15:07:03.109Z,24.40
2022-07-31T15:09:57.940Z,24.40
2022-07-31T15:12:44.289Z,23.70
2022-07-31T15:15:31.020Z,23.00
2022-07-31T15:18:20.762Z,23.00
2022-07-31T15:21:16.032Z,23.10
2022-07-31T15:24:02.675Z,22.70
2022-07-31T15:26:49.021Z,22.60
2022-07-31T15:30:05.485Z,22.20
2022-07-31T15:32:42.534Z,22.30
2022-07-31T15:35:29.167Z,22.10
2022-07-31T15:38:17.036Z,22.00
2022-07-31T15:41:03.699Z,22.10
2022-07-31T15:43:50.045Z,22.20
2022-07-31T15:46:36.367Z,22.30
2022-07-31T15:49:22.964Z,22.20
2022-07-31T15:52:18.894Z,22.20
2022-07-31T15:55:09.420Z,22.10
2022-07-31T15:57:55.789Z,21.90
2022-07-31T16:00:42.307Z,21.90
2022-07-31T16:03:50.669Z,21.80
2022-07-31T16:06:36.171Z,22.20
2022-07-31T16:09:24.064Z,22.30
2022-07-31T16:12:12.166Z,22.30
2022-07-31T16:14:58.754Z,22.40
2022-07-31T16:17:45.585Z,22.40
2022-07-31T16:20:32.103Z,22.40
2022-07-31T16:23:18.497Z,22.50
2022-07-31T16:26:05.089Z,22.50
2022-07-31T16:28:54.340Z,22.50
2022-07-31T16:31:41.783Z,22.50
2022-07-31T16:34:28.433Z,22.50
2022-07-31T16:37:14.997Z,22.50
2022-07-31T16:40:01.433Z,22.60
2022-07-31T16:42:53.134Z,22.60
2022-07-31T16:45:41.309Z,22.60
2022-07-31T16:48:28.064Z,22.60
2022-07-31T16:51:14.403Z,22.60
2022-07-31T16:54:12.692Z,22.60
2022-07-31T16:57:03.287Z,22.60
2022-07-31T16:59:57.912Z,22.60
2022-07-31T17:02:46.416Z,22.50
2022-07-31T17:05:32.945Z,22.50
2022-07-31T17:08:20.075Z,22.50
2022-07-31T17:11:07.005Z,22.60
2022-07-31T17:13:53.580Z,22.60
2022-07-31T17:16:44.867Z,22.50
2022-07-31T17:19:36.260Z,22.50
2022-07-31T17:22:29.592Z,22.50
2022-07-31T17:25:17.229Z,22.50
2022-07-31T17:28:03.977Z,22.60
2022-07-31T17:30:50.355Z,22.60
2022-07-31T17:33:59.058Z,22.60
2022-07-31T17:36:44.601Z,22.60
2022-07-31T17:39:31.516Z,22.80
2022-07-31T17:42:18.301Z,22.70
2022-07-31T17:45:11.059Z,22.70
2022-07-31T17:48:03.400Z,22.90
2022-07-31T17:50:54.107Z,22.90
2022-07-31T17:53:55.199Z,22.90
2022-07-31T17:56:46.224Z,22.70
2022-07-31T17:59:38.670Z,22.70
2022-07-31T18:02:25.288Z,22.70
2022-07-31T18:05:12.133Z,22.70
2022-07-31T18:07:58.793Z,22.60
2022-07-31T18:10:54.472Z,22.60
2022-07-31T18:13:48.338Z,22.60
2022-07-31T18:16:37.942Z,22.60
2022-07-31T18:19:24.523Z,22.50
2022-07-31T18:22:11.270Z,22.50
2022-07-31T18:24:57.737Z,22.50
2022-07-31T18:27:45.660Z,22.50
2022-07-31T18:30:34.797Z,22.40
2022-07-31T18:33:25.248Z,22.40
2022-07-31T18:36:12.260Z,22.30
2022-07-31T18:38:59.933Z,21.90
2022-07-31T18:41:48.929Z,21.70
2022-07-31T18:44:37.251Z,21.90
2022-07-31T18:47:23.901Z,21.90
2022-07-31T18:50:58.184Z,21.90
2022-07-31T18:53:17.802Z,22.10
2022-07-31T18:56:06.317Z,22.10
2022-07-31T18:58:53.069Z,22.10
2022-07-31T19:01:41.169Z,21.90
2022-07-31T19:04:29.246Z,21.70
2022-07-31T19:07:15.998Z,21.80
2022-07-31T19:10:02.481Z,21.80
2022-07-31T19:12:48.980Z,21.50
2022-07-31T19:15:36.329Z,21.50
2022-07-31T19:18:28.033Z,21.70
2022-07-31T19:21:23.541Z,21.60
2022-07-31T19:24:22.329Z,21.60
2022-07-31T19:27:08.942Z,21.50
2022-07-31T19:29:55.704Z,21.50
2022-07-31T19:32:42.440Z,21.60
2022-07-31T19:35:30.124Z,21.40
2022-07-31T19:38:16.683Z,21.50
2022-07-31T19:41:03.099Z,21.40
2022-07-31T19:43:49.970Z,21.50
2022-07-31T19:46:36.937Z,21.40
2022-07-31T19:49:23.397Z,21.50
2022-07-31T19:52:11.495Z,21.50
2022-07-31T19:54:58.164Z,21.10
2022-07-31T19:57:44.872Z,21.30
2022-07-31T20:00:32.596Z,21.30
2022-07-31T20:03:19.047Z,21.30
2022-07-31T20:06:06.792Z,21.40
2022-07-31T20:08:54.508Z,21.40
2022-07-31T20:11:41.165Z,21.30
2022-07-31T20:14:27.601Z,21.40
2022-07-31T20:17:13.905Z,21.30
2022-07-31T20:20:14.525Z,21.10
2022-07-31T20:23:02.489Z,21.20
2022-07-31T20:25:50.233Z,21.30
2022-07-31T20:28:37.457Z,21.30
2022-07-31T20:31:23.811Z,21.30
2022-07-31T20:34:10.150Z,20.90
2022-07-31T20:36:58.668Z,21.20
2022-07-31T20:39:46.071Z,21.30
2022-07-31T20:42:34.387Z,21.20
2022-07-31T20:45:20.616Z,21.30
2022-07-31T20:48:07.735Z,21.30
2022-07-31T20:50:54.296Z,21.20
2022-07-31T20:53:40.965Z,21.30
2022-07-31T20:56:27.276Z,21.30
2022-07-31T20:59:15.480Z,21.40
2022-07-31T21:02:03.678Z,21.40
2022-07-31T21:04:50.313Z,21.40
2022-07-31T21:07:36.646Z,21.30
2022-07-31T21:10:23.991Z,21.00
2022-07-31T21:13:10.915Z,21.10
2022-07-31T21:15:58.901Z,21.20
2022-07-31T21:18:47.209Z,21.00
2022-07-31T21:21:33.659Z,21.10
2022-07-31T21:24:20.588Z,21.00
2022-07-31T21:27:15.711Z,21.00
2022-07-31T21:30:02.973Z,21.20
2022-07-31T21:32:51.249Z,21.10
2022-07-31T21:35:40.048Z,20.90
2022-07-31T21:38:27.328Z,20.80
2022-07-31T21:41:14.331Z,21.00
2022-07-31T21:44:01.430Z,21.00
2022-07-31T21:46:51.796Z,20.90
2022-07-31T21:49:40.966Z,20.90
2022-07-31T21:52:29.973Z,20.90
2022-07-31T21:55:16.811Z,20.80
2022-07-31T21:58:03.230Z,20.80
2022-07-31T22:00:49.754Z,20.70
2022-07-31T22:03:36.651Z,20.90
2022-07-31T22:06:42.029Z,20.70
2022-07-31T22:09:28.657Z,20.50
2022-07-31T22:12:15.425Z,20.70
2022-07-31T22:15:02.016Z,20.90
2022-07-31T22:17:48.848Z,20.90
2022-07-31T22:20:36.059Z,20.80
2022-07-31T22:23:24.677Z,20.70
2022-07-31T22:26:11.447Z,20.80
2022-07-31T22:28:58.272Z,20.90
2022-07-31T22:31:49.705Z,20.80
2022-07-31T22:34:38.609Z,20.80
2022-07-31T22:37:26.879Z,20.80
2022-07-31T22:40:16.725Z,20.80
2022-07-31T22:43:03.514Z,20.70
2022-07-31T22:45:50.685Z,20.70
2022-07-31T22:48:38.702Z,20.70
2022-07-31T22:51:25.591Z,20.60
2022-07-31T22:54:11.932Z,20.70
2022-07-31T22:56:59.761Z,20.80
2022-07-31T22:59:46.790Z,20.70
2022-07-31T23:02:33.236Z,20.60
2022-07-31T23:05:21.216Z,20.70
2022-07-31T23:08:07.853Z,20.70
2022-07-31T23:10:54.462Z,20.80
2022-07-31T23:13:42.199Z,20.70
2022-07-31T23:16:29.780Z,20.40
2022-07-31T23:19:16.293Z,20.10
2022-07-31T23:22:02.885Z,20.60
2022-07-31T23:24:49.533Z,20.50
2022-07-31T23:27:36.195Z,20.50
2022-07-31T23:30:27.454Z,20.50
2022-07-31T23:33:16.437Z,20.40
2022-07-31T23:36:03.537Z,20.50
2022-07-31T23:38:50.097Z,20.60
2022-07-31T23:41:54.133Z,20.30
2022-07-31T23:44:41.066Z,20.50
2022-07-31T23:47:44.553Z,20.40
2022-07-31T23:50:32.312Z,20.40
2022-07-31T23:53:18.639Z,20.50
2022-07-31T23:56:05.304Z,20.40
2022-07-31T23:59:05.239Z,20.50
